Portada
METAR-TAF:

METAR-TAF

Aeroports :

Arar, Aràbia Saudita

latitud: 30-54N, longitud: 041-08E, altitud: 555 m

Observació

L'informe es va fer fa 48 minuts, a les 09:00 UTC
Vent 11 kt del Oest
Temperatura 34°C
Humitat 10%
Pressió 1008 hPa
Visibilitat 10 km o més
sense núvols per sota de 1500 mi sense presència de cumulonimbus.

METAR: OERR 020900Z 27011KT CAVOK 34/M02 Q1008

Hora: 12:48 (09:48 UTC)

Pronòstic

L'informe es va fer fa 10 hores i 48 minuts, a les 23:00 UTC
Pronòstic vàlid del 02 a les 00 UTC al 03 a les 06 UTC
Vent 12 kt del Nord
Visibilitat 10 km o més
sense núvols per sota de 1500 mi sense presència de cumulonimbus.
Evolucionant progressivament
l' 02 a les 08 UTC al 02 a les 10 UTC
Vent 14 kt del Oest

TAF: OERR 012300Z 0200/0306 35012KT CAVOK BECMG 0208/0210 26014KT

Observacions i pronòstics meteorològics de més de 4000 aeroports (METAR i TAF).

Les estacions disponibles són els punts grocs i vermells al mapa.

Posi el ratolí al punt desitjat per veure el nom de l'estació.

Feu clic per veure les observacions i els pronòstics meteorològics.

Per canviar el mapa: feu clic els botons verds amb una creu de color negre per apropar; al botó verd amb un guió per allunyar la imatge; o en les fletxes verdes per a mapes adjacents.


METAR-TAF: